CheckWX is a tool to help pilots better visualize weather data.  It is not intended as a substitute for an official pre-flight weather briefing.

13:06:37 UTC

KPSF TAF
Pittsfield Municipal Airport
Pittsfield, Massachusetts, USA
KPSF 181120Z 1812/1912 20003KT 1/4SM FG OVC002 FM181300 22004KT P6SM SCT035 BKN250 FM181900 22007KT P6SM VCSH BKN040 TEMPO 1821/1901 4SM -TSRA OVC025CB FM190300 VRB03KT P6SM VCSH OVC040 FM190800 VRB03KT 2SM BR BKN008

Aug-18@
12:00 UTC

Aug-18 @ 12:00 UTC

Aug-18@
13:00 UTC

Aug-18 @ 13:00 UTC

KPSF 181120Z 1812/1912 20003KT 1/4SM FG OVC002

Expired

Wind
  • 200° at 3 KTS
Conditions
Fog
Cloud Levels
  • Overcast at 200' AGL

Aug-18@
13:00 UTC

Aug-18 @ 13:00 UTC

Aug-18@
19:00 UTC

Aug-18 @ 19:00 UTC

FM181300 22004KT P6SM SCT035 BKN250

From

From Standard forecast or significant change

Wind
  • 220° at 4 KTS
Cloud Levels
  • Scattered at 3,500' AGL
  • Broken at 25,000' AGL

Aug-18@
19:00 UTC

Aug-18 @ 19:00 UTC

Aug-19@
03:00 UTC

Aug-19 @ 03:00 UTC

FM181900 22007KT P6SM VCSH BKN040

From

From Standard forecast or significant change

Wind
  • 220° at 7 KTS
Cloud Levels
  • Broken at 4,000' AGL

Aug-18@
21:00 UTC

Aug-18 @ 21:00 UTC

Aug-19@
01:00 UTC

Aug-19 @ 01:00 UTC

TEMPO 1821/1901 4SM -TSRA OVC025CB

Temporary

Temporary Changes expected for less than half the time period

Conditions
Light Thunderstorm, Light Rain
Cloud Levels
  • Overcast at 2,500' AGL

Aug-19@
03:00 UTC

Aug-19 @ 03:00 UTC

Aug-19@
08:00 UTC

Aug-19 @ 08:00 UTC

FM190300 VRB03KT P6SM VCSH OVC040

From

From Standard forecast or significant change

Wind
  • Variable at 3 KTS
Cloud Levels
  • Overcast at 4,000' AGL

Aug-19@
08:00 UTC

Aug-19 @ 08:00 UTC

Aug-19@
12:00 UTC

Aug-19 @ 12:00 UTC

FM190800 VRB03KT 2SM BR BKN008

From

From Standard forecast or significant change

Wind
  • Variable at 3 KTS
Conditions
Mist
Cloud Levels
  • Broken at 800' AGL